Time;durP1;ratioP1;P1;durP2;ratioP2;P2;SDS_P1;SDS_P2;PMS_P1;PMS_P2;Temp;Humidity;BMP_temperature;BMP_pressure;BME280_temperature;BME280_humidity;BME280_pressure;Samples;Min_cycle;Max_cycle;Signal;HPM_P1;HPM_P2
2022/12/10 00:01:09;;;;;;;92.97;41.88;;;;;;;1.31;100.00;100475.34;5109847;28;20450;-71
2022/12/10 00:03:36;;;;;;;94.80;42.00;;;;;;;1.29;100.00;100475.72;5110298;28;20055;-71
2022/12/10 00:06:05;;;;;;;123.25;59.67;;;;;;;1.27;100.00;100474.44;5110734;28;20043;-70
2022/12/10 00:08:33;;;;;;;125.75;61.15;;;;;;;1.25;100.00;100487.66;5110699;28;20055;-73
2022/12/10 00:10:59;;;;;;;119.15;62.75;;;;;;;1.22;100.00;100485.59;5109217;27;20444;-72
2022/12/10 00:13:25;;;;;;;107.70;52.65;;;;;;;1.17;100.00;100480.34;5110608;28;20161;-72
2022/12/10 00:15:52;;;;;;;102.35;45.42;;;;;;;1.16;100.00;100481.50;5110851;27;20051;-73
2022/12/10 00:18:18;;;;;;;92.18;44.58;;;;;;;1.14;100.00;100483.75;5110106;28;20044;-71
2022/12/10 00:20:45;;;;;;;96.90;48.15;;;;;;;1.07;100.00;100484.34;5108724;28;20050;-72
2022/12/10 00:23:12;;;;;;;91.22;43.20;;;;;;;1.04;100.00;100484.22;5107488;28;20090;-70
2022/12/10 00:25:38;;;;;;;98.13;43.95;;;;;;;0.98;100.00;100482.84;5109618;28;20044;-71
2022/12/10 00:28:05;;;;;;;89.97;43.10;;;;;;;0.95;100.00;100483.53;5110018;28;20047;-72
2022/12/10 00:30:33;;;;;;;85.60;39.40;;;;;;;0.95;100.00;100478.09;5109451;28;20190;-72
2022/12/10 00:32:59;;;;;;;88.50;42.13;;;;;;;0.94;100.00;100482.72;5110552;28;20407;-72
2022/12/10 00:35:26;;;;;;;95.13;44.10;;;;;;;0.90;100.00;100481.81;5107357;28;20055;-71
2022/12/10 00:37:52;;;;;;;94.60;42.55;;;;;;;0.89;100.00;100485.69;5109313;28;20051;-70
2022/12/10 00:40:19;;;;;;;86.03;41.65;;;;;;;0.85;100.00;100483.97;5108507;28;20056;-71
2022/12/10 00:42:45;;;;;;;97.63;43.00;;;;;;;0.81;100.00;100483.84;5110419;28;20171;-72
2022/12/10 00:45:12;;;;;;;90.55;43.45;;;;;;;0.79;100.00;100486.13;5110718;28;20416;-69
2022/12/10 00:47:38;;;;;;;93.88;43.63;;;;;;;0.76;100.00;100485.97;5109977;28;20051;-71
2022/12/10 00:50:05;;;;;;;97.47;44.42;;;;;;;0.78;100.00;100481.81;5107821;28;20120;-71
2022/12/10 00:52:32;;;;;;;90.85;43.22;;;;;;;0.77;100.00;100477.47;5110087;28;20507;-71
2022/12/10 00:54:59;;;;;;;92.32;40.83;;;;;;;0.79;100.00;100483.41;5109351;28;20109;-72
2022/12/10 00:57:25;;;;;;;84.60;39.45;;;;;;;0.76;100.00;100485.97;5110045;28;20044;-72
2022/12/10 00:59:52;;;;;;;92.03;40.08;;;;;;;0.67;100.00;100496.19;5108147;28;20051;-72
2022/12/10 01:02:18;;;;;;;87.10;40.80;;;;;;;0.64;100.00;100494.91;5108594;28;20051;-70
2022/12/10 01:04:45;;;;;;;87.70;43.58;;;;;;;0.64;100.00;100488.69;5109373;28;20047;-71
2022/12/10 01:07:11;;;;;;;88.68;42.30;;;;;;;0.62;100.00;100486.31;5109355;28;20055;-71
2022/12/10 01:09:38;;;;;;;93.40;41.33;;;;;;;0.62;100.00;100490.94;5108629;28;20496;-71
2022/12/10 01:12:04;;;;;;;92.63;42.13;;;;;;;0.58;100.00;100490.03;5109992;28;20051;-72
2022/12/10 01:14:33;;;;;;;90.68;42.38;;;;;;;0.56;100.00;100490.38;5107907;28;20528;-72
2022/12/10 01:17:03;;;;;;;98.43;44.47;;;;;;;0.56;100.00;100492.28;5109099;28;20055;-72
2022/12/10 01:19:30;;;;;;;99.82;44.28;;;;;;;0.62;100.00;100496.38;5108613;28;20039;-71
2022/12/10 01:21:57;;;;;;;98.65;44.53;;;;;;;0.66;100.00;100497.31;5107247;28;20134;-72
2022/12/10 01:24:27;;;;;;;96.30;42.30;;;;;;;0.66;100.00;100495.38;5109679;28;20080;-71
2022/12/10 01:26:55;;;;;;;93.70;41.63;;;;;;;0.62;100.00;100496.38;5108319;27;20055;-73
2022/12/10 01:29:21;;;;;;;95.38;40.95;;;;;;;0.53;100.00;100498.41;5109190;28;20096;-72
2022/12/10 01:31:51;;;;;;;86.13;40.22;;;;;;;0.57;100.00;100507.50;5108727;28;20050;-72
2022/12/10 01:34:18;;;;;;;95.00;41.03;;;;;;;0.64;100.00;100515.91;5108567;28;20062;-72
2022/12/10 01:36:47;;;;;;;95.10;41.20;;;;;;;0.68;100.00;100517.66;5109210;28;20056;-69
2022/12/10 01:39:16;;;;;;;95.90;42.40;;;;;;;0.76;100.00;100518.66;5109297;28;20052;-71
2022/12/10 01:41:44;;;;;;;90.93;41.92;;;;;;;0.78;100.00;100524.59;5106823;28;20063;-71
2022/12/10 01:44:10;;;;;;;95.35;41.45;;;;;;;0.80;100.00;100520.38;5109596;28;20047;-68
2022/12/10 01:46:39;;;;;;;95.30;42.20;;;;;;;0.82;100.00;100522.78;5108620;28;20055;-71
2022/12/10 01:49:09;;;;;;;91.38;43.03;;;;;;;0.88;100.00;100518.69;5108374;28;20048;-73
2022/12/10 01:51:39;;;;;;;98.05;44.35;;;;;;;0.92;100.00;100514.16;5107903;28;20048;-72
2022/12/10 01:54:10;;;;;;;96.85;40.55;;;;;;;0.96;100.00;100517.81;5107578;28;20047;-72
2022/12/10 01:56:40;;;;;;;96.93;43.03;;;;;;;0.91;100.00;100518.03;5109230;28;20050;-72
2022/12/10 01:59:09;;;;;;;91.93;40.35;;;;;;;0.90;100.00;100524.59;5108459;28;20055;-71
2022/12/10 02:01:54;;;;;;;93.10;42.58;;;;;;;0.97;100.00;100524.84;5107154;28;20055;-71
2022/12/10 02:04:36;;;;;;;84.57;41.30;;;;;;;0.97;100.00;100522.91;5108613;28;20048;-68
2022/12/10 02:07:28;;;;;;;87.13;39.65;;;;;;;1.00;100.00;100529.59;5108844;28;20443;-69
2022/12/10 02:10:16;;;;;;;86.05;39.42;;;;;;;1.01;100.00;100525.78;5064565;28;20051;-73
2022/12/10 02:12:52;;;;;;;86.75;40.22;;;;;;;1.00;100.00;100524.97;5102327;28;20059;-70
2022/12/10 02:15:24;;;;;;;94.10;40.83;;;;;;;1.03;100.00;100528.94;5108198;28;20058;-71
2022/12/10 02:18:13;;;;;;;91.80;41.08;;;;;;;1.03;100.00;100527.03;5108292;28;20047;-70
2022/12/10 02:20:46;;;;;;;92.30;41.42;;;;;;;1.06;100.00;100528.25;5087416;28;20048;-70
2022/12/10 02:23:18;;;;;;;87.35;39.58;;;;;;;1.01;100.00;100525.78;5106757;28;20590;-69
2022/12/10 02:25:57;;;;;;;92.13;39.38;;;;;;;1.01;100.00;100528.50;5106621;28;20046;-71
2022/12/10 02:28:42;;;;;;;92.13;39.08;;;;;;;1.06;100.00;100528.25;5108010;28;20067;-67
2022/12/10 02:31:11;;;;;;;92.57;41.03;;;;;;;1.09;100.00;100525.66;5107489;28;20051;-70
2022/12/10 02:33:43;;;;;;;86.03;39.70;;;;;;;1.09;100.00;100513.97;5107209;28;20043;-72
2022/12/10 02:36:11;;;;;;;81.47;37.25;;;;;;;1.07;100.00;100517.03;5108353;28;20043;-72
2022/12/10 02:38:41;;;;;;;78.38;35.38;;;;;;;1.07;100.00;100517.03;5107330;28;20043;-72
2022/12/10 02:41:19;;;;;;;87.32;37.80;;;;;;;1.10;100.00;100512.81;5105560;28;20176;-71
2022/12/10 02:43:49;;;;;;;82.82;37.88;;;;;;;1.10;100.00;100515.53;5107498;28;20788;-72
2022/12/10 02:46:16;;;;;;;80.43;38.13;;;;;;;1.09;100.00;100512.03;5108309;28;20504;-70
2022/12/10 02:48:45;;;;;;;87.25;41.83;;;;;;;1.10;100.00;100516.34;5107221;28;20575;-70
2022/12/10 02:51:11;;;;;;;90.95;40.90;;;;;;;1.08;100.00;100509.66;5107165;28;20065;-70
2022/12/10 02:53:45;;;;;;;80.60;37.90;;;;;;;1.09;100.00;100516.69;5109839;28;20044;-70
2022/12/10 02:56:20;;;;;;;81.97;38.67;;;;;;;1.10;100.00;100518.28;5111368;27;20052;-70
2022/12/10 02:59:24;;;;;;;87.13;38.42;;;;;;;1.11;100.00;100515.22;5110918;28;20051;-73
2022/12/10 03:02:03;;;;;;;84.57;39.00;;;;;;;1.13;100.00;100512.94;5109632;28;20043;-70
2022/12/10 03:04:44;;;;;;;79.65;36.17;;;;;;;1.14;100.00;100521.91;5111889;28;20052;-71
2022/12/10 03:07:18;;;;;;;81.22;38.70;;;;;;;1.15;100.00;100518.06;5112243;28;20047;-71
2022/12/10 03:10:01;;;;;;;83.93;38.10;;;;;;;1.15;100.00;100523.50;5109812;27;20043;-72
2022/12/10 03:12:35;;;;;;;84.95;38.63;;;;;;;1.09;100.00;100528.41;5109628;28;20510;-73
2022/12/10 03:15:06;;;;;;;75.65;37.40;;;;;;;1.09;100.00;100528.41;5111943;28;20055;-72
2022/12/10 03:17:34;;;;;;;84.72;37.13;;;;;;;1.16;100.00;100530.56;5110411;28;20056;-69
2022/12/10 03:20:03;;;;;;;81.07;35.38;;;;;;;1.18;100.00;100528.28;5111304;28;20051;-70
2022/12/10 03:22:32;;;;;;;82.35;36.85;;;;;;;1.18;100.00;100537.25;5110364;28;20055;-70
2022/12/10 03:24:59;;;;;;;83.38;38.17;;;;;;;1.16;100.00;100530.56;5111590;28;20074;-70
2022/12/10 03:27:29;;;;;;;82.72;39.30;;;;;;;1.18;100.00;100525.56;5110064;27;20051;-72
2022/12/10 03:29:59;;;;;;;83.43;38.80;;;;;;;1.20;100.00;100531.47;5110049;28;20048;-71
2022/12/10 03:32:27;;;;;;;84.65;37.72;;;;;;;1.20;100.00;100528.72;5110340;28;20146;-71
2022/12/10 03:34:56;;;;;;;91.50;44.45;;;;;;;1.14;100.00;100519.97;5111766;28;20078;-72
2022/12/10 03:37:25;;;;;;;94.13;44.75;;;;;;;1.15;100.00;100526.25;5111739;28;20054;-70
2022/12/10 03:39:52;;;;;;;85.90;40.47;;;;;;;1.12;100.00;100533.16;5110686;28;20051;-72
2022/12/10 03:42:18;;;;;;;87.47;41.28;;;;;;;1.12;100.00;100525.00;5108968;28;20051;-73
2022/12/10 03:44:45;;;;;;;79.18;39.28;;;;;;;1.12;100.00;100541.34;5111225;28;20075;-70
2022/12/10 03:47:14;;;;;;;82.40;40.65;;;;;;;1.18;100.00;100541.91;5111881;28;20057;-70
2022/12/10 03:49:42;;;;;;;86.68;40.00;;;;;;;1.21;100.00;100541.25;5109214;28;20477;-70
2022/12/10 03:52:09;;;;;;;83.32;38.42;;;;;;;1.26;100.00;100536.38;5111548;28;20051;-71
2022/12/10 03:54:36;;;;;;;81.97;38.42;;;;;;;1.29;100.00;100535.69;5111219;28;20051;-72
2022/12/10 03:57:03;;;;;;;80.07;37.70;;;;;;;1.30;100.00;100536.47;5110106;28;20055;-71
2022/12/10 03:59:29;;;;;;;77.43;37.10;;;;;;;1.32;100.00;100537.72;5103219;28;20104;-69
2022/12/10 04:01:55;;;;;;;85.82;39.97;;;;;;;1.32;100.00;100532.25;5109504;28;20052;-72
2022/12/10 04:04:22;;;;;;;83.22;38.30;;;;;;;1.33;100.00;100531.16;5110112;28;20507;-72
2022/12/10 04:06:49;;;;;;;83.40;38.75;;;;;;;1.34;100.00;100532.72;5110340;28;20436;-71
2022/12/10 04:09:15;;;;;;;80.10;36.47;;;;;;;1.29;100.00;100532.16;5109172;28;20484;-72
2022/12/10 04:11:43;;;;;;;74.65;35.92;;;;;;;1.28;100.00;100533.31;5107797;28;20051;-70
2022/12/10 04:16:56;;;;;;;79.30;38.70;;;;;;;1.19;100.00;100533.41;5109355;28;20050;-70
2022/12/10 04:19:23;;;;;;;74.88;36.25;;;;;;;1.24;100.00;100546.00;5110591;28;20048;-72
2022/12/10 04:27:27;;;;;;;73.05;35.08;;;;;;;1.29;100.00;100537.59;5109068;28;20051;-70
2022/12/10 04:29:55;;;;;;;79.60;37.75;;;;;;;1.28;100.00;100539.53;5109709;28;20058;-70
2022/12/10 04:32:24;;;;;;;76.78;37.20;;;;;;;1.26;100.00;100536.38;5110620;28;20056;-70
2022/12/10 04:34:50;;;;;;;76.70;37.35;;;;;;;1.27;100.00;100543.41;5109799;28;20050;-70
2022/12/10 04:37:18;;;;;;;78.35;36.65;;;;;;;1.25;100.00;100534.75;5109506;28;20070;-72
2022/12/10 04:39:45;;;;;;;77.63;36.88;;;;;;;1.26;100.00;100538.28;5109866;28;20040;-71
2022/12/10 04:42:12;;;;;;;74.97;36.88;;;;;;;1.20;100.00;100534.19;5108581;28;20700;-73
2022/12/10 04:44:38;;;;;;;77.85;37.47;;;;;;;1.20;100.00;100539.63;5109806;28;20047;-71
2022/12/10 04:47:07;;;;;;;87.05;38.47;;;;;;;1.17;100.00;100532.13;5108791;28;20044;-70
2022/12/10 04:49:34;;;;;;;77.00;37.80;;;;;;;1.24;100.00;100535.09;5108976;28;20703;-73
2022/12/10 04:52:02;;;;;;;78.60;37.65;;;;;;;1.24;100.00;100535.91;5110411;28;20089;-71
2022/12/10 04:54:29;;;;;;;77.95;38.60;;;;;;;1.21;100.00;100535.78;5108245;28;20051;-70
2022/12/10 04:57:03;;;;;;;77.57;37.13;;;;;;;1.13;100.00;100523.06;5108900;28;20047;-73
2022/12/10 04:59:30;;;;;;;72.10;35.17;;;;;;;1.17;100.00;100532.94;5109613;28;20040;-70
2022/12/10 05:01:56;;;;;;;72.47;35.70;;;;;;;1.14;100.00;100536.34;5108695;28;20063;-70
2022/12/10 05:04:23;;;;;;;68.97;33.22;;;;;;;1.08;100.00;100532.22;5109954;28;20055;-71
2022/12/10 05:06:50;;;;;;;71.03;35.90;;;;;;;1.05;100.00;100534.84;5107874;28;20142;-71
2022/12/10 05:09:16;;;;;;;76.45;33.67;;;;;;;1.02;100.00;100536.34;5108444;28;20044;-73
2022/12/10 05:11:46;;;;;;;69.80;34.80;;;;;;;0.95;100.00;100541.53;5106188;28;20047;-72
2022/12/10 05:14:14;;;;;;;70.00;34.03;;;;;;;0.88;100.00;100537.78;5106673;28;20059;-72
2022/12/10 05:16:40;;;;;;;75.25;34.63;;;;;;;0.79;100.00;100540.59;5109264;28;20531;-71
2022/12/10 05:19:08;;;;;;;72.13;35.33;;;;;;;0.77;100.00;100542.84;5110044;28;20112;-72
2022/12/10 05:24:20;;;;;;;80.10;37.80;;;;;;;0.73;100.00;100536.47;5109702;28;20052;-69
2022/12/10 05:26:50;;;;;;;80.72;38.30;;;;;;;0.72;100.00;100542.25;5107838;28;20047;-72
2022/12/10 05:29:17;;;;;;;69.15;34.70;;;;;;;0.66;100.00;100543.59;5108597;28;20653;-72
2022/12/10 05:31:44;;;;;;;72.68;36.42;;;;;;;0.61;100.00;100547.31;5108577;28;20543;-72
2022/12/10 05:34:11;;;;;;;79.63;35.75;;;;;;;0.59;100.00;100541.44;5109130;28;20084;-72
2022/12/10 05:36:37;;;;;;;75.35;36.45;;;;;;;0.57;100.00;100549.13;5107233;28;20066;-70
2022/12/10 05:39:04;;;;;;;75.60;34.55;;;;;;;0.55;100.00;100547.88;5109065;28;20048;-70
2022/12/10 05:41:34;;;;;;;75.13;36.35;;;;;;;0.51;100.00;100546.94;5108490;28;20056;-68
2022/12/10 05:44:00;;;;;;;67.75;34.72;;;;;;;0.47;100.00;100548.75;5119197;27;20046;-70
2022/12/10 05:46:30;;;;;;;72.35;34.28;;;;;;;0.42;100.00;100540.78;5106053;28;20047;-72
2022/12/10 05:48:57;;;;;;;66.68;33.67;;;;;;;0.39;100.00;100541.44;5109851;28;20433;-71
2022/12/10 05:51:27;;;;;;;71.97;33.85;;;;;;;0.39;100.00;100547.69;5108477;28;20062;-72
2022/12/10 05:53:54;;;;;;;71.05;34.70;;;;;;;0.36;100.00;100556.53;5108827;28;20070;-70
2022/12/10 05:56:23;;;;;;;72.38;34.05;;;;;;;0.35;100.00;100562.28;5105209;28;20044;-70
2022/12/10 05:58:53;;;;;;;75.07;34.20;;;;;;;0.32;100.00;100557.50;5108173;28;20082;-72
2022/12/10 06:01:22;;;;;;;71.43;34.28;;;;;;;0.32;100.00;100557.50;5106530;28;20047;-71
2022/12/10 06:03:52;;;;;;;76.93;35.90;;;;;;;0.28;100.00;100562.03;5107628;28;20053;-70
2022/12/10 06:06:23;;;;;;;73.05;35.47;;;;;;;0.23;100.00;100554.09;5106561;28;20058;-71
2022/12/10 06:08:50;;;;;;;76.95;35.78;;;;;;;0.21;100.00;100550.88;5108908;28;20054;-71
2022/12/10 06:11:17;;;;;;;69.53;34.28;;;;;;;0.17;100.00;100556.22;5107459;28;20488;-72
2022/12/10 06:13:43;;;;;;;75.68;35.72;;;;;;;0.14;100.00;100553.34;5107291;28;20592;-70
2022/12/10 06:16:13;;;;;;;76.85;37.08;;;;;;;0.11;100.00;100556.72;5108855;28;20058;-71
2022/12/10 06:18:41;;;;;;;74.82;35.60;;;;;;;0.09;100.00;100559.00;5105924;28;20047;-72
2022/12/10 06:21:16;;;;;;;80.47;35.58;;;;;;;0.04;100.00;100558.03;5106229;28;20058;-73
2022/12/10 06:23:43;;;;;;;76.95;36.75;;;;;;;-0.02;100.00;100559.38;5108642;28;20048;-70
2022/12/10 06:26:13;;;;;;;81.95;36.42;;;;;;;-0.02;100.00;100562.09;5109054;28;20098;-70
2022/12/10 06:28:41;;;;;;;75.63;35.35;;;;;;;-0.06;100.00;100566.59;5117084;28;20046;-70
2022/12/10 06:31:07;;;;;;;78.43;36.22;;;;;;;-0.12;100.00;100562.50;5128349;27;20047;-72
2022/12/10 06:33:34;;;;;;;74.30;34.33;;;;;;;-0.17;100.00;100559.16;5107102;27;20035;-72
2022/12/10 06:36:03;;;;;;;72.53;35.75;;;;;;;-0.18;100.00;100560.28;5107713;28;20040;-72
2022/12/10 06:38:31;;;;;;;77.47;36.78;;;;;;;-0.18;100.00;100557.56;5107467;28;20039;-71
2022/12/10 06:40:57;;;;;;;81.90;37.58;;;;;;;-0.18;100.00;100565.72;5106737;28;20439;-71
2022/12/10 06:43:24;;;;;;;77.20;36.88;;;;;;;-0.20;100.00;100571.47;5103881;28;20052;-72
2022/12/10 06:45:50;;;;;;;79.47;36.65;;;;;;;-0.23;100.00;100574.06;5107509;28;20047;-73
2022/12/10 06:48:17;;;;;;;77.38;36.20;;;;;;;-0.26;100.00;100575.50;5108237;28;20071;-73
2022/12/10 06:50:43;;;;;;;80.82;36.85;;;;;;;-0.26;100.00;100575.50;5109535;28;20044;-69
2022/12/10 06:53:10;;;;;;;76.65;35.95;;;;;;;-0.32;100.00;100576.03;5107290;28;20052;-69
2022/12/10 06:55:38;;;;;;;71.88;34.65;;;;;;;-0.32;100.00;100576.03;5107719;28;20082;-72
2022/12/10 06:58:04;;;;;;;73.93;36.05;;;;;;;-0.34;100.00;100583.72;5125203;28;20503;-70
2022/12/10 07:00:31;;;;;;;77.70;36.90;;;;;;;-0.39;100.00;100590.16;5126594;28;20070;-73
2022/12/10 07:02:58;;;;;;;83.85;39.65;;;;;;;-0.40;100.00;100593.97;5114113;27;20056;-72
2022/12/10 07:05:24;;;;;;;83.57;40.97;;;;;;;-0.39;100.00;100592.88;5105036;28;20097;-73
2022/12/10 07:07:50;;;;;;;79.57;37.50;;;;;;;-0.40;100.00;100591.25;5107628;28;20058;-72
2022/12/10 07:10:17;;;;;;;74.50;38.05;;;;;;;-0.41;100.00;100592.41;5106577;28;20051;-75
2022/12/10 07:12:44;;;;;;;83.32;37.45;;;;;;;-0.42;100.00;100590.81;5108481;28;20051;-74
2022/12/10 07:15:10;;;;;;;74.18;35.72;;;;;;;-0.46;100.00;100592.59;5107630;28;20408;-74
2022/12/10 07:17:36;;;;;;;82.20;38.17;;;;;;;-0.48;100.00;100589.38;5107354;28;20093;-72
2022/12/10 07:20:04;;;;;;;78.38;36.47;;;;;;;-0.49;100.00;100597.88;5104429;28;20040;-73
2022/12/10 07:22:30;;;;;;;76.55;37.60;;;;;;;-0.48;100.00;100605.69;5107353;28;20051;-71
2022/12/10 07:24:57;;;;;;;81.82;36.28;;;;;;;-0.51;100.00;100600.91;5107163;28;20052;-72
2022/12/10 07:27:23;;;;;;;74.10;34.25;;;;;;;-0.52;100.00;100607.47;5106736;28;20048;-72
2022/12/10 07:29:50;;;;;;;78.95;39.40;;;;;;;-0.59;100.00;100618.06;5106218;28;20043;-74
2022/12/10 07:32:17;;;;;;;74.20;37.60;;;;;;;-0.57;100.00;100621.22;5105686;28;20055;-70
2022/12/10 07:34:43;;;;;;;74.72;37.38;;;;;;;-0.57;100.00;100620.47;5104536;28;20565;-71
2022/12/10 07:37:09;;;;;;;83.55;40.65;;;;;;;-0.58;100.00;100627.78;5107264;28;20064;-71
2022/12/10 07:39:36;;;;;;;86.25;38.92;;;;;;;-0.54;100.00;100631.44;5106664;28;20052;-70
2022/12/10 07:42:03;;;;;;;78.55;35.55;;;;;;;-0.57;100.00;100629.38;5110795;28;20043;-75
2022/12/10 07:44:29;;;;;;;81.68;35.20;;;;;;;-0.58;100.00;100635.16;5105118;28;20052;-72
2022/12/10 07:46:56;;;;;;;21.65;9.82;;;;;;;-0.65;100.00;100638.38;5110245;28;20048;-73
2022/12/10 07:49:22;;;;;;;52.65;19.15;;;;;;;-0.65;100.00;100635.66;5112062;28;20079;-73
2022/12/10 07:51:50;;;;;;;41.35;18.10;;;;;;;-0.71;100.00;100645.09;5110440;27;20574;-73
2022/12/10 07:54:17;;;;;;;80.75;30.73;;;;;;;-0.66;100.00;100647.66;5111466;28;20063;-73
2022/12/10 07:56:44;;;;;;;98.50;38.72;;;;;;;-0.67;100.00;100646.03;5110478;28;20585;-72
2022/12/10 07:59:11;;;;;;;96.57;36.33;;;;;;;-0.68;100.00;100643.66;5108350;27;20463;-71
2022/12/10 08:01:38;;;;;;;50.17;19.95;;;;;;;-0.72;100.00;100653.56;5108462;27;20044;-72
2022/12/10 08:04:05;;;;;;;106.57;40.33;;;;;;;-0.68;100.00;100655.31;5108826;28;20185;-72
2022/12/10 08:06:31;;;;;;;82.93;31.42;;;;;;;-0.68;100.00;100649.88;5124158;27;20074;-73
2022/12/10 08:08:59;;;;;;;105.47;31.92;;;;;;;-0.71;100.00;100655.97;5129554;27;20051;-73
2022/12/10 08:11:27;;;;;;;35.50;13.60;;;;;;;-0.70;100.00;100654.06;5109951;28;20090;-70
2022/12/10 08:13:54;;;;;;;61.90;23.10;;;;;;;-0.67;100.00;100656.91;5109018;28;20044;-73
2022/12/10 08:16:25;;;;;;;103.70;39.50;;;;;;;-0.65;100.00;100657.41;5109944;28;20047;-72
2022/12/10 08:18:54;;;;;;;82.57;29.27;;;;;;;-0.62;100.00;100658.66;5110421;28;20135;-73
2022/12/10 08:21:23;;;;;;;114.05;39.75;;;;;;;-0.57;100.00;100663.94;5089524;28;20055;-74
2022/12/10 08:23:50;;;;;;;125.10;43.53;;;;;;;-0.55;100.00;100667.91;5090787;28;20082;-70
2022/12/10 08:26:20;;;;;;;131.60;42.78;;;;;;;-0.48;100.00;100672.84;5109790;28;20404;-73
2022/12/10 08:28:48;;;;;;;84.10;30.35;;;;;;;-0.48;100.00;100676.38;5110282;28;20051;-73
2022/12/10 08:31:17;;;;;;;139.65;46.70;;;;;;;-0.38;100.00;100681.44;5108955;28;20051;-73
2022/12/10 08:33:43;;;;;;;80.20;29.08;;;;;;;-0.35;100.00;100680.81;5098104;28;20052;-73
2022/12/10 08:36:12;;;;;;;54.63;20.13;;;;;;;-0.39;100.00;100679.88;5084824;28;20051;-73
2022/12/10 08:38:40;;;;;;;33.55;15.98;;;;;;;-0.36;100.00;100687.38;5085177;28;20051;-76
2022/12/10 08:41:10;;;;;;;122.03;41.90;;;;;;;-0.34;100.00;100687.81;5089387;27;20063;-70
2022/12/10 08:43:36;;;;;;;115.10;39.53;;;;;;;-0.27;100.00;100695.50;5087295;28;20854;-74
2022/12/10 08:46:04;;;;;;;47.55;20.65;;;;;;;-0.29;100.00;100687.66;5089093;28;20043;-75
2022/12/10 08:48:31;;;;;;;48.60;18.95;;;;;;;-0.33;100.00;100697.56;5084354;27;20055;-73
2022/12/10 08:50:58;;;;;;;74.40;27.80;;;;;;;-0.29;100.00;100697.72;5080421;27;20864;-71
2022/12/10 08:53:24;;;;;;;96.28;35.40;;;;;;;-0.31;100.00;100702.69;5083650;28;20050;-74
2022/12/10 08:55:52;;;;;;;91.45;27.92;;;;;;;-0.29;100.00;100697.72;5088459;28;20054;-74
2022/12/10 08:58:19;;;;;;;65.78;25.30;;;;;;;-0.25;100.00;100701.38;5074892;28;20055;-73
2022/12/10 09:00:47;;;;;;;135.27;49.45;;;;;;;-0.15;100.00;100704.56;5067866;28;20055;-74
2022/12/10 09:03:14;;;;;;;123.25;44.72;;;;;;;-0.12;100.00;100709.34;5071059;28;20074;-74
2022/12/10 09:05:41;;;;;;;121.70;44.63;;;;;;;-0.11;100.00;100707.41;5081906;28;20043;-73
2022/12/10 09:08:08;;;;;;;118.95;45.03;;;;;;;-0.07;100.00;100711.06;5082644;27;20162;-74
2022/12/10 09:10:36;;;;;;;110.63;45.47;;;;;;;-0.06;100.00;100718.13;5082608;27;20134;-73
2022/12/10 09:13:03;;;;;;;58.05;23.75;;;;;;;-0.06;100.00;100718.91;5084501;27;20389;-74
2022/12/10 09:15:30;;;;;;;35.33;17.75;;;;;;;-0.04;100.00;100711.22;5085412;28;20597;-74
2022/12/10 09:17:57;;;;;;;71.28;26.15;;;;;;;0.04;100.00;100723.97;5089488;28;20502;-74
2022/12/10 09:20:23;;;;;;;109.78;42.80;;;;;;;0.12;100.00;100721.53;5083090;27;20044;-73
2022/12/10 09:22:50;;;;;;;49.20;17.63;;;;;;;0.12;100.00;100716.09;5088315;28;20047;-74
2022/12/10 09:25:17;;;;;;;103.28;41.97;;;;;;;0.18;100.00;100733.84;5079287;28;20056;-74
2022/12/10 09:27:44;;;;;;;82.30;30.65;;;;;;;0.24;100.00;100736.06;5083615;28;20044;-72
2022/12/10 09:30:11;;;;;;;43.78;17.90;;;;;;;0.19;100.00;100743.59;5083515;28;20051;-72
2022/12/10 09:32:38;;;;;;;86.30;36.78;;;;;;;0.25;100.00;100737.66;5084221;28;20083;-73
2022/12/10 09:35:06;;;;;;;39.60;19.70;;;;;;;0.22;100.00;100738.31;5083383;27;20044;-73
2022/12/10 09:37:32;;;;;;;140.45;51.63;;;;;;;0.33;100.00;100734.09;5084738;27;20047;-76
2022/12/10 09:39:59;;;;;;;128.90;45.90;;;;;;;0.43;100.00;100735.66;5082822;28;20070;-74
2022/12/10 09:42:56;;;;;;;93.65;37.58;;;;;;;0.43;100.00;100730.97;5081320;28;20051;-73
2022/12/10 09:45:39;;;;;;;104.82;41.67;;;;;;;0.43;100.00;100733.69;5084377;27;20256;-73
2022/12/10 09:48:09;;;;;;;93.65;36.53;;;;;;;0.45;100.00;100731.47;5085533;28;20738;-73
2022/12/10 09:50:45;;;;;;;115.45;43.13;;;;;;;0.51;100.00;100729.34;5088618;28;20788;-71
2022/12/10 09:53:17;;;;;;;103.47;39.90;;;;;;;0.49;100.00;100728.88;5088269;28;20393;-73
2022/12/10 09:55:46;;;;;;;24.35;12.27;;;;;;;0.43;100.00;100717.38;5088345;28;20050;-73
2022/12/10 09:58:18;;;;;;;110.25;41.70;;;;;;;0.53;100.00;100724.34;5073263;28;20579;-72
2022/12/10 10:00:48;;;;;;;10.32;5.80;;;;;;;0.42;100.00;100728.59;5063233;28;20857;-72
2022/12/10 10:03:16;;;;;;;96.18;32.78;;;;;;;0.49;100.00;100726.13;5076844;28;20086;-75
2022/12/10 10:05:48;;;;;;;111.50;42.50;;;;;;;0.49;100.00;100720.69;5084351;28;20051;-76
2022/12/10 10:08:29;;;;;;;77.93;29.05;;;;;;;0.46;100.00;100721.34;5083248;27;20073;-74
2022/12/10 10:10:56;;;;;;;27.10;11.80;;;;;;;0.48;100.00;100719.91;5081747;28;20044;-74
2022/12/10 10:13:43;;;;;;;72.93;30.33;;;;;;;0.52;100.00;100728.22;5085159;28;22080;-74
2022/12/10 10:16:48;;;;;;;35.42;15.38;;;;;;;0.47;100.00;100718.31;5076659;28;20782;-75
2022/12/10 10:19:19;;;;;;;81.68;30.60;;;;;;;0.49;100.00;100726.13;5040141;28;20048;-73
2022/12/10 10:21:48;;;;;;;120.97;44.20;;;;;;;0.56;100.00;100726.41;5078136;28;20051;-73
2022/12/10 10:24:21;;;;;;;132.75;48.83;;;;;;;0.63;100.00;100730.22;5081210;28;20055;-72
2022/12/10 10:26:48;;;;;;;38.10;16.20;;;;;;;0.49;100.00;100731.59;5085221;28;20058;-74
2022/12/10 10:29:18;;;;;;;86.60;34.10;;;;;;;0.29;100.00;100735.06;5079734;28;20047;-74
2022/12/10 10:31:45;;;;;;;123.30;46.25;;;;;;;0.38;100.00;100731.19;5086008;28;20062;-73
2022/12/10 10:34:21;;;;;;;114.28;43.28;;;;;;;0.42;100.00;100731.31;5079230;28;20871;-72
2022/12/10 10:36:56;;;;;;;36.92;18.40;;;;;;;0.35;100.00;100725.59;5075365;28;20051;-71
2022/12/10 10:39:26;;;;;;;;;;;;;;;0.38;100.00;100714.03;5071042;28;20498;-71
2022/12/10 10:41:56;;;;;;;110.15;45.60;;;;;;;0.48;100.00;100719.09;5083345;28;19950;-73
2022/12/10 10:44:27;;;;;;;52.50;21.15;;;;;;;0.48;100.00;100721.84;5076250;28;20047;-73
2022/12/10 10:46:55;;;;;;;125.47;45.28;;;;;;;0.52;100.00;100720.84;5084602;28;20085;-74
2022/12/10 10:49:32;;;;;;;98.20;39.72;;;;;;;0.56;100.00;100726.41;5081063;28;20050;-72
2022/12/10 10:52:05;;;;;;;128.40;48.80;;;;;;;0.58;100.00;100718.72;5077737;28;20062;-73
2022/12/10 10:54:37;;;;;;;114.70;42.63;;;;;;;0.58;100.00;100722.25;5082333;28;20054;-74
2022/12/10 10:57:24;;;;;;;106.38;40.20;;;;;;;0.56;100.00;100718.25;5083503;28;20047;-72
2022/12/10 10:59:54;;;;;;;120.43;46.13;;;;;;;0.66;100.00;100721.38;5086692;28;20052;-75
2022/12/10 11:02:24;;;;;;;113.57;41.88;;;;;;;0.56;100.00;100732.66;5072006;28;20059;-75
2022/12/10 11:04:53;;;;;;;108.25;40.75;;;;;;;0.55;100.00;100730.28;5066484;28;20058;-74
2022/12/10 11:07:40;;;;;;;86.32;35.05;;;;;;;0.58;100.00;100726.91;5093403;28;20179;-71
2022/12/10 11:10:27;;;;;;;64.10;23.75;;;;;;;0.50;100.00;100723.09;5072458;28;20055;-73
2022/12/10 11:13:17;;;;;;;67.00;24.02;;;;;;;0.49;100.00;100726.13;5075499;28;20051;-73
2022/12/10 11:15:44;;;;;;;84.20;31.65;;;;;;;0.43;100.00;100724.75;5076100;28;20047;-72
2022/12/10 11:18:26;;;;;;;72.20;25.75;;;;;;;0.36;100.00;100736.16;5079595;28;20055;-72
2022/12/10 11:21:17;;;;;;;98.85;37.70;;;;;;;0.47;100.00;100733.84;5085418;27;20047;-73
2022/12/10 11:23:46;;;;;;;42.22;17.00;;;;;;;0.41;100.00;100732.44;5079168;28;20066;-72
2022/12/10 11:26:33;;;;;;;41.97;17.73;;;;;;;0.37;100.00;100736.97;5085764;27;20783;-74
2022/12/10 11:29:21;;;;;;;39.28;15.05;;;;;;;0.34;100.00;100729.44;5089608;28;20047;-73